CZST Airport Information

Runway Information
Runway 18 Length 3900 ft width 75 ft
Elevation 0 ft Threshold 0 ft Heading 194
Runway 36 Length 3900 ft Width 75 ft
Elevation 0 ft Threshold 0 ft Heading 14
Airport Frequencies
Type ATF Name ATF Frequency 123.2 MHZ
Airport Navaids
Airport Weather Information & NOTAM
ADDS - METARS form results

(2135 UTC 23 February 2019)
Data provider http://aviationweather.gov/metar/data/
 
METAR text: CZST 232100Z 04012G20KT 15SM FEW065 00/M11 A3037 RMK CU1 SLP287
Conditions at: CZST (STEWART AIRPORT , BC, CA) observed 2100 UTC 23 February 2019
Temperature: 0.0°C (32°F)
Dewpoint: -11.0°C (12°F) [RH = 43%]
Pressure (altimeter): 30.37 inches Hg (1028.5 mb)
[Sea-level pressure: 1028.7 mb]
Winds: from the NE (40 degrees) at 14 MPH (12 knots; 6.2 m/s)
gusting to 23 MPH (20 knots; 10.3 m/s)
Visibility: 15 miles (24 km)
Ceiling: at least 12,000 feet AGL
Clouds: few clouds at 6500 feet AGL
Weather: no significant weather observed at this time